High gust

Not for real navigation. The accuracy of this data is not assured See disclaimer for more information



ICAO NAME COUNTRY WIND Kt GUST Kt VIS m TEMP/DEW C BARO METAR
KMWN Mount Washington NH United States 46 58 9999 2/2 29.92 KMWN 252349Z 14046G58KT 0SM +RA FG VV000 02/02 RMK 60017 4/009 10025 20009
K1KM 35 42 16000 9/-1 30.09 K1KM 252358Z AUTO 01035G42KT 10SM FEW090 FEW100 09/M01 A3009 RMK AO2 PK WND 01046/19 RAB23E27SHRAB27
KBYG BUFFALO JOHNSON COUNTY AIRPORT WY United States 27 37 9999 16/-7 30.01 KBYG 252353Z AUTO 33027G37KT 10SM CAVOK 16/M07 A3001 RMK AO2 PK WND 33037/2345 SLP148 T01611067 1022
PABI ALLEN ARMY AIRFIELD AK United States 25 34 16000 8/-3 29.89 PABI 252353Z 19025G34KT 10SM FEW060 FEW100 SCT130 08/M03 A2989 RMK AO2 PK WND 20037/2258 SLP136 SHRA
PAMK 25 34 16000 6/-1 29.51 PAMK 252356Z AUTO 19025G34KT 10SM BKN025 06/M01 A2951 RMK AO2 PK WND 19034/2355 SLP997 T00561006 100

Show more